Daphne, Alabama
Current Conditions -  °F | °C
As of 7:35 AM on Sunday 21 Dec 2014 (Local Time) from KCQF Reporting Station
Overcast Overcast  
Wind Chill: 50°   Ceiling: 1000
Heat Index: 50°   Visibility: 10mi
Dew Point: 48°   Wind: 7mph
Humidity: 94%   Direction: 40°NE
Pressure: 30.09"   Gusts: NA
Location:  30.6°N, 87.9°W
Report Text: KCQF 211335Z AUTO 04006KT 10SM BKN010 OVC028 10/09 A3009 RMK AO2
Loading
Personal Weather Stations






























Interactive Weather Map New forecast layout! Learn more

10-Day Weather Forecast

Advertisements
Track Severe Weather on mobile